Terminal Aerodrome Forecast
Issued by NWS

Current Version | Previous Version | Graphics & Text | Print | Product List | Glossary On
Versions: 1 2 3 4 5 6 7 8 9 10 11 12 13 14 15 16 17 18 19 20 21 22 23 24 25
934
FTUS41 KRLX 131506 AAA
TAFCKB
TAF AMD
KCKB 131506Z 1315/1412 01005KT P6SM OVC015
     FM131900 35004KT P6SM SCT020 BKN250
     FM140600 VRB03KT 6SM -FZRAPL OVC026
     FM140900 VRB03KT 2SM -RA OVC006=

USA.gov is the U.S. government's official web portal to all federal, state and local government web resources and services.